sensor_id;sensor_type;location;lat;lon;timestamp;pressure;altitude;pressure_sealevel;temperature;humidity
48390;BME280;34643;47.964;7.982;2023-08-12T00:00:09;97052.13;;;21.89;59.90
48390;BME280;34643;47.964;7.982;2023-08-12T00:05:16;97049.50;;;21.89;59.92
48390;BME280;34643;47.964;7.982;2023-08-12T00:10:16;97045.06;;;21.90;59.80
48390;BME280;34643;47.964;7.982;2023-08-12T00:15:16;97039.81;;;21.90;59.74
48390;BME280;34643;47.964;7.982;2023-08-12T00:20:17;97034.56;;;21.90;59.89
48390;BME280;34643;47.964;7.982;2023-08-12T00:25:17;97034.56;;;21.90;59.67
48390;BME280;34643;47.964;7.982;2023-08-12T00:30:18;97036.22;;;21.91;59.79
48390;BME280;34643;47.964;7.982;2023-08-12T00:35:18;97042.31;;;21.91;59.57
48390;BME280;34643;47.964;7.982;2023-08-12T00:40:19;97036.22;;;21.91;59.86
48390;BME280;34643;47.964;7.982;2023-08-12T00:45:19;97030.97;;;21.91;59.53
48390;BME280;34643;47.964;7.982;2023-08-12T00:50:19;97030.00;;;21.92;59.80
48390;BME280;34643;47.964;7.982;2023-08-12T00:55:20;97020.47;;;21.91;59.68
48390;BME280;34643;47.964;7.982;2023-08-12T01:00:21;97025.72;;;21.91;59.58
48390;BME280;34643;47.964;7.982;2023-08-12T01:05:21;97018.66;;;21.91;59.59
48390;BME280;34643;47.964;7.982;2023-08-12T01:10:22;97011.59;;;21.92;59.58
48390;BME280;34643;47.964;7.982;2023-08-12T01:15:24;97001.09;;;21.92;59.51
48390;BME280;34643;47.964;7.982;2023-08-12T01:20:26;97008.97;;;21.92;59.61
48390;BME280;34643;47.964;7.982;2023-08-12T01:25:26;97002.88;;;21.91;59.83
48390;BME280;34643;47.964;7.982;2023-08-12T01:30:27;97006.34;;;21.92;59.82
48390;BME280;34643;47.964;7.982;2023-08-12T01:35:33;96999.44;;;21.91;59.75
48390;BME280;34643;47.964;7.982;2023-08-12T01:40:35;97000.13;;;21.93;59.75
48390;BME280;34643;47.964;7.982;2023-08-12T01:45:35;96996.69;;;21.92;59.58
48390;BME280;34643;47.964;7.982;2023-08-12T01:50:35;96989.63;;;21.93;59.58
48390;BME280;34643;47.964;7.982;2023-08-12T01:55:36;96992.25;;;21.93;59.80
48390;BME280;34643;47.964;7.982;2023-08-12T02:00:36;96989.63;;;21.93;59.72
48390;BME280;34643;47.964;7.982;2023-08-12T02:05:36;96973.84;;;21.93;59.61
48390;BME280;34643;47.964;7.982;2023-08-12T02:10:41;96970.41;;;21.92;59.59
48390;BME280;34643;47.964;7.982;2023-08-12T02:15:43;96972.88;;;21.94;59.69
48390;BME280;34643;47.964;7.982;2023-08-12T02:20:49;96971.22;;;21.93;59.56
48390;BME280;34643;47.964;7.982;2023-08-12T02:25:49;96973.03;;;21.92;59.77
48390;BME280;34643;47.964;7.982;2023-08-12T02:30:51;96970.41;;;21.92;59.73
48390;BME280;34643;47.964;7.982;2023-08-12T02:35:52;96965.97;;;21.93;59.59
48390;BME280;34643;47.964;7.982;2023-08-12T02:40:53;96965.97;;;21.93;59.63
48390;BME280;34643;47.964;7.982;2023-08-12T02:45:53;96971.22;;;21.93;59.76
48390;BME280;34643;47.964;7.982;2023-08-12T02:50:53;96964.28;;;21.92;59.61
48390;BME280;34643;47.964;7.982;2023-08-12T02:55:54;96966.78;;;21.93;59.46
48390;BME280;34643;47.964;7.982;2023-08-12T03:00:54;96961.66;;;21.92;59.82
48390;BME280;34643;47.964;7.982;2023-08-12T03:05:54;96956.41;;;21.92;59.72
48390;BME280;34643;47.964;7.982;2023-08-12T03:10:58;96949.38;;;21.92;59.54
48390;BME280;34643;47.964;7.982;2023-08-12T03:15:59;96954.63;;;21.92;59.72
48390;BME280;34643;47.964;7.982;2023-08-12T03:21:00;96957.25;;;21.92;59.50
48390;BME280;34643;47.964;7.982;2023-08-12T03:26:05;96947.56;;;21.93;59.72
48390;BME280;34643;47.964;7.982;2023-08-12T03:31:05;96944.94;;;21.93;59.53
48390;BME280;34643;47.964;7.982;2023-08-12T03:36:07;96950.19;;;21.93;59.55
48390;BME280;34643;47.964;7.982;2023-08-12T03:41:08;96950.19;;;21.93;59.86
48390;BME280;34643;47.964;7.982;2023-08-12T03:46:09;96946.59;;;21.94;59.61
48390;BME280;34643;47.964;7.982;2023-08-12T03:51:09;96945.75;;;21.93;59.57
48390;BME280;34643;47.964;7.982;2023-08-12T03:56:10;96951.84;;;21.94;59.90
48390;BME280;34643;47.964;7.982;2023-08-12T04:01:10;96956.28;;;21.93;59.55
48390;BME280;34643;47.964;7.982;2023-08-12T04:06:11;96951.03;;;21.93;59.69
48390;BME280;34643;47.964;7.982;2023-08-12T04:11:11;96950.19;;;21.93;59.70
48390;BME280;34643;47.964;7.982;2023-08-12T04:16:14;96955.44;;;21.93;59.64
48390;BME280;34643;47.964;7.982;2023-08-12T04:21:14;96946.75;;;21.92;59.52
48390;BME280;34643;47.964;7.982;2023-08-12T04:26:15;96950.19;;;21.93;59.76
48390;BME280;34643;47.964;7.982;2023-08-12T04:31:15;96954.63;;;21.92;59.54
48390;BME280;34643;47.964;7.982;2023-08-12T04:36:17;96944.69;;;21.96;59.76
48390;BME280;34643;47.964;7.982;2023-08-12T04:41:17;96949.50;;;21.91;59.89
48390;BME280;34643;47.964;7.982;2023-08-12T04:46:18;96944.25;;;21.81;59.85
48390;BME280;34643;47.964;7.982;2023-08-12T04:51:19;96945.22;;;21.80;59.82
48390;BME280;34643;47.964;7.982;2023-08-12T04:56:19;96938.56;;;21.76;59.85
48390;BME280;34643;47.964;7.982;2023-08-12T05:01:20;96930.25;;;21.71;59.61
48390;BME280;34643;47.964;7.982;2023-08-12T05:06:20;96932.19;;;21.69;59.42
48390;BME280;34643;47.964;7.982;2023-08-12T05:11:20;96925.00;;;21.71;59.31
48390;BME280;34643;47.964;7.982;2023-08-12T05:16:21;96923.22;;;21.71;59.53
48390;BME280;34643;47.964;7.982;2023-08-12T05:21:21;96927.81;;;21.69;59.21
48390;BME280;34643;47.964;7.982;2023-08-12T05:26:22;96932.34;;;21.67;59.46
48390;BME280;34643;47.964;7.982;2023-08-12T05:31:23;96928.19;;;21.64;59.23
48390;BME280;34643;47.964;7.982;2023-08-12T05:36:23;96927.38;;;21.64;59.20
48390;BME280;34643;47.964;7.982;2023-08-12T05:41:23;96930.69;;;21.66;59.46
48390;BME280;34643;47.964;7.982;2023-08-12T05:46:24;96940.63;;;21.72;59.38
48390;BME280;34643;47.964;7.982;2023-08-12T05:51:24;96943.13;;;21.74;59.36
48390;BME280;34643;47.964;7.982;2023-08-12T05:56:24;96936.94;;;21.75;59.35
48390;BME280;34643;47.964;7.982;2023-08-12T06:01:24;96941.88;;;21.78;59.24
48390;BME280;34643;47.964;7.982;2023-08-12T06:06:25;96940.94;;;21.79;59.34
48390;BME280;34643;47.964;7.982;2023-08-12T06:11:25;96939.13;;;21.79;59.37
48390;BME280;34643;47.964;7.982;2023-08-12T06:16:25;96941.63;;;21.81;59.71
48390;BME280;34643;47.964;7.982;2023-08-12T06:21:27;96940.66;;;21.82;59.52
48390;BME280;34643;47.964;7.982;2023-08-12T06:26:27;96939.81;;;21.81;59.46
48390;BME280;34643;47.964;7.982;2023-08-12T06:31:27;96931.09;;;21.81;59.78
48390;BME280;34643;47.964;7.982;2023-08-12T06:36:28;96924.03;;;21.81;59.86
48390;BME280;34643;47.964;7.982;2023-08-12T06:41:28;96932.78;;;21.82;59.65
48390;BME280;34643;47.964;7.982;2023-08-12T06:46:28;96937.03;;;21.83;59.72
48390;BME280;34643;47.964;7.982;2023-08-12T06:51:30;96937.91;;;21.83;59.67
48390;BME280;34643;47.964;7.982;2023-08-12T06:56:31;96932.63;;;21.83;59.63
48390;BME280;34643;47.964;7.982;2023-08-12T07:01:33;96939.53;;;21.84;59.63
48390;BME280;34643;47.964;7.982;2023-08-12T07:06:37;96938.59;;;21.86;59.71
48390;BME280;34643;47.964;7.982;2023-08-12T07:11:38;96929.72;;;21.87;59.71
48390;BME280;34643;47.964;7.982;2023-08-12T07:16:38;96927.78;;;21.89;59.88
48390;BME280;34643;47.964;7.982;2023-08-12T07:21:38;96926.13;;;21.88;59.67
48390;BME280;34643;47.964;7.982;2023-08-12T07:26:39;96933.03;;;21.89;59.78
48390;BME280;34643;47.964;7.982;2023-08-12T07:31:39;96922.38;;;21.90;59.62
48390;BME280;34643;47.964;7.982;2023-08-12T07:36:40;96920.59;;;21.91;59.70
48390;BME280;34643;47.964;7.982;2023-08-12T07:41:40;96910.91;;;21.91;59.45
48390;BME280;34643;47.964;7.982;2023-08-12T07:46:41;96916.03;;;21.93;59.47
48390;BME280;34643;47.964;7.982;2023-08-12T07:51:41;96910.78;;;21.93;59.62
48390;BME280;34643;47.964;7.982;2023-08-12T07:56:41;96921.28;;;21.93;59.65
48390;BME280;34643;47.964;7.982;2023-08-12T08:01:42;96918.66;;;21.93;59.50
48390;BME280;34643;47.964;7.982;2023-08-12T08:06:42;96952.81;;;21.93;59.72
48390;BME280;34643;47.964;7.982;2023-08-12T08:11:44;96986.00;;;21.94;59.51
48390;BME280;34643;47.964;7.982;2023-08-12T08:16:44;96987.81;;;21.93;59.65
48390;BME280;34643;47.964;7.982;2023-08-12T08:21:44;97004.41;;;21.94;59.53
48390;BME280;34643;47.964;7.982;2023-08-12T08:26:45;97004.41;;;21.94;59.69
48390;BME280;34643;47.964;7.982;2023-08-12T08:31:48;96998.31;;;21.93;59.55
48390;BME280;34643;47.964;7.982;2023-08-12T08:36:49;96971.22;;;21.93;59.64
48390;BME280;34643;47.964;7.982;2023-08-12T08:41:50;96971.22;;;21.93;59.76
48390;BME280;34643;47.964;7.982;2023-08-12T08:46:51;96958.09;;;21.93;59.78
48390;BME280;34643;47.964;7.982;2023-08-12T08:51:52;96972.03;;;21.93;59.54
48390;BME280;34643;47.964;7.982;2023-08-12T08:56:52;96977.28;;;21.93;59.65
48390;BME280;34643;47.964;7.982;2023-08-12T09:01:53;96976.47;;;21.93;59.63
48390;BME280;34643;47.964;7.982;2023-08-12T09:06:55;96965.84;;;21.94;59.75
48390;BME280;34643;47.964;7.982;2023-08-12T09:11:55;96978.97;;;21.94;59.48
48390;BME280;34643;47.964;7.982;2023-08-12T09:16:55;96987.69;;;21.95;59.57
48390;BME280;34643;47.964;7.982;2023-08-12T09:21:56;96992.09;;;21.94;59.82
48390;BME280;34643;47.964;7.982;2023-08-12T09:26:56;97006.06;;;21.95;59.73
48390;BME280;34643;47.964;7.982;2023-08-12T09:32:09;96985.03;;;21.95;59.62
48390;BME280;34643;47.964;7.982;2023-08-12T09:37:09;97007.03;;;21.94;59.60
48390;BME280;34643;47.964;7.982;2023-08-12T09:42:10;96997.38;;;21.94;59.47
48390;BME280;34643;47.964;7.982;2023-08-12T09:47:11;97012.16;;;21.95;59.77
48390;BME280;34643;47.964;7.982;2023-08-12T09:52:12;96994.59;;;21.96;59.61
48390;BME280;34643;47.964;7.982;2023-08-12T09:57:13;96983.09;;;21.97;59.42
48390;BME280;34643;47.964;7.982;2023-08-12T10:02:14;96976.22;;;21.96;59.74
48390;BME280;34643;47.964;7.982;2023-08-12T10:07:18;96976.22;;;21.96;59.70
48390;BME280;34643;47.964;7.982;2023-08-12T10:12:19;96977.84;;;21.97;59.51
48390;BME280;34643;47.964;7.982;2023-08-12T10:17:20;96971.63;;;21.98;59.67
48390;BME280;34643;47.964;7.982;2023-08-12T10:22:21;96969.16;;;21.96;59.44
48390;BME280;34643;47.964;7.982;2023-08-12T10:27:23;96969.00;;;21.98;59.73
48390;BME280;34643;47.964;7.982;2023-08-12T10:32:24;96970.66;;;21.99;59.56
48390;BME280;34643;47.964;7.982;2023-08-12T10:37:26;96970.53;;;22.00;59.60
48390;BME280;34643;47.964;7.982;2023-08-12T10:42:43;96968.03;;;21.99;59.37
48390;BME280;34643;47.964;7.982;2023-08-12T10:47:47;96952.25;;;21.99;59.45
48390;BME280;34643;47.964;7.982;2023-08-12T10:52:51;96950.47;;;21.99;59.48
48390;BME280;34643;47.964;7.982;2023-08-12T10:57:52;96945.06;;;22.01;59.38
48390;BME280;34643;47.964;7.982;2023-08-12T11:02:54;96946.88;;;22.00;59.67
48390;BME280;34643;47.964;7.982;2023-08-12T11:07:56;96962.50;;;22.02;59.55
48390;BME280;34643;47.964;7.982;2023-08-12T11:12:57;96979.22;;;22.01;59.62
48390;BME280;34643;47.964;7.982;2023-08-12T11:17:58;96989.72;;;22.01;59.72
48390;BME280;34643;47.964;7.982;2023-08-12T11:22:58;97028.22;;;22.02;59.44
48390;BME280;34643;47.964;7.982;2023-08-12T11:28:00;97062.38;;;22.02;59.42
48390;BME280;34643;47.964;7.982;2023-08-12T11:33:01;97079.94;;;22.01;59.40
48390;BME280;34643;47.964;7.982;2023-08-12T11:38:01;97016.03;;;22.01;59.38
48390;BME280;34643;47.964;7.982;2023-08-12T11:43:02;96961.81;;;22.00;59.65
48390;BME280;34643;47.964;7.982;2023-08-12T11:48:03;96981.03;;;22.00;59.71
48390;BME280;34643;47.964;7.982;2023-08-12T11:53:05;96974.81;;;22.01;59.79
48390;BME280;34643;47.964;7.982;2023-08-12T11:58:05;96970.38;;;22.02;59.57
48390;BME280;34643;47.964;7.982;2023-08-12T12:03:06;96974.69;;;22.03;59.39
48390;BME280;34643;47.964;7.982;2023-08-12T12:08:07;96974.69;;;22.03;59.33
48390;BME280;34643;47.964;7.982;2023-08-12T12:13:09;96963.19;;;22.04;59.58
48390;BME280;34643;47.964;7.982;2023-08-12T12:18:11;96959.59;;;22.05;59.39
48390;BME280;34643;47.964;7.982;2023-08-12T12:23:12;96960.41;;;22.06;59.60
48390;BME280;34643;47.964;7.982;2023-08-12T12:28:15;96958.63;;;22.06;59.33
48390;BME280;34643;47.964;7.982;2023-08-12T12:33:16;96956.00;;;22.06;59.60
48390;BME280;34643;47.964;7.982;2023-08-12T12:38:16;96953.22;;;22.08;59.46
48390;BME280;34643;47.964;7.982;2023-08-12T12:43:16;96960.28;;;22.07;59.37
48390;BME280;34643;47.964;7.982;2023-08-12T12:48:17;96960.97;;;22.09;59.40
48390;BME280;34643;47.964;7.982;2023-08-12T12:53:17;96951.28;;;22.10;59.33
48390;BME280;34643;47.964;7.982;2023-08-12T12:58:18;96950.31;;;22.11;59.40
48390;BME280;34643;47.964;7.982;2023-08-12T13:03:18;96939.81;;;22.11;59.51
48390;BME280;34643;47.964;7.982;2023-08-12T13:08:18;96944.06;;;22.12;59.28
48390;BME280;34643;47.964;7.982;2023-08-12T13:13:19;96937.03;;;22.12;59.43
48390;BME280;34643;47.964;7.982;2023-08-12T13:18:19;96931.78;;;22.12;59.37
48390;BME280;34643;47.964;7.982;2023-08-12T13:23:19;96929.97;;;22.13;59.32
48390;BME280;34643;47.964;7.982;2023-08-12T13:28:20;96927.22;;;22.14;59.59
48390;BME280;34643;47.964;7.982;2023-08-12T13:33:20;96932.47;;;22.14;59.24
48390;BME280;34643;47.964;7.982;2023-08-12T13:38:20;96930.66;;;22.15;59.54
48390;BME280;34643;47.964;7.982;2023-08-12T13:43:21;96925.28;;;22.16;59.44
48390;BME280;34643;47.964;7.982;2023-08-12T13:48:21;96921.69;;;22.17;59.28
48390;BME280;34643;47.964;7.982;2023-08-12T13:53:23;96912.00;;;22.18;59.48
48390;BME280;34643;47.964;7.982;2023-08-12T13:58:24;96926.81;;;22.19;59.27
48390;BME280;34643;47.964;7.982;2023-08-12T14:03:24;96930.25;;;22.19;59.22
48390;BME280;34643;47.964;7.982;2023-08-12T14:08:24;96919.75;;;22.19;59.21
48390;BME280;34643;47.964;7.982;2023-08-12T14:13:25;96926.63;;;22.20;59.31
48390;BME280;34643;47.964;7.982;2023-08-12T14:18:25;96923.88;;;22.22;59.19
48390;BME280;34643;47.964;7.982;2023-08-12T14:23:25;96902.84;;;22.22;59.49
48390;BME280;34643;47.964;7.982;2023-08-12T14:28:26;96913.22;;;22.24;59.45
48390;BME280;34643;47.964;7.982;2023-08-12T14:33:26;96902.69;;;22.24;59.45
48390;BME280;34643;47.964;7.982;2023-08-12T14:38:32;96909.63;;;22.25;59.14
48390;BME280;34643;47.964;7.982;2023-08-12T14:43:33;96907.00;;;22.25;59.46
48390;BME280;34643;47.964;7.982;2023-08-12T14:48:33;96906.88;;;22.26;59.45
48390;BME280;34643;47.964;7.982;2023-08-12T14:53:33;96905.91;;;22.27;59.47
48390;BME280;34643;47.964;7.982;2023-08-12T14:58:33;96910.22;;;22.28;59.22
48390;BME280;34643;47.964;7.982;2023-08-12T15:03:34;96897.88;;;22.29;59.38
48390;BME280;34643;47.964;7.982;2023-08-12T15:08:35;96900.50;;;22.29;59.17
48390;BME280;34643;47.964;7.982;2023-08-12T15:13:35;96899.56;;;22.30;59.26
48390;BME280;34643;47.964;7.982;2023-08-12T15:18:35;96899.56;;;22.30;59.22
48390;BME280;34643;47.964;7.982;2023-08-12T15:23:35;96892.47;;;22.30;59.47
48390;BME280;34643;47.964;7.982;2023-08-12T15:28:36;96893.31;;;22.31;59.27
48390;BME280;34643;47.964;7.982;2023-08-12T15:33:36;96894.97;;;22.32;59.17
48390;BME280;34643;47.964;7.982;2023-08-12T15:38:37;96887.91;;;22.32;59.21
48390;BME280;34643;47.964;7.982;2023-08-12T15:43:37;96896.63;;;22.33;59.57
48390;BME280;34643;47.964;7.982;2023-08-12T15:48:37;96899.25;;;22.33;59.25
48390;BME280;34643;47.964;7.982;2023-08-12T15:53:38;96907.13;;;22.33;59.23
48390;BME280;34643;47.964;7.982;2023-08-12T15:58:38;96914.06;;;22.34;59.37
48390;BME280;34643;47.964;7.982;2023-08-12T16:03:39;96907.00;;;22.34;59.38
48390;BME280;34643;47.964;7.982;2023-08-12T16:08:39;96896.47;;;22.34;59.31
48390;BME280;34643;47.964;7.982;2023-08-12T16:13:40;96900.78;;;22.35;59.42
48390;BME280;34643;47.964;7.982;2023-08-12T16:18:40;96897.31;;;22.35;59.20
48390;BME280;34643;47.964;7.982;2023-08-12T16:23:40;96899.97;;;22.35;59.44
48390;BME280;34643;47.964;7.982;2023-08-12T16:28:41;96914.75;;;22.36;59.08
48390;BME280;34643;47.964;7.982;2023-08-12T16:33:41;96929.69;;;22.35;59.52
48390;BME280;34643;47.964;7.982;2023-08-12T16:38:41;96938.41;;;22.36;59.17
48390;BME280;34643;47.964;7.982;2023-08-12T16:43:42;96943.66;;;22.36;59.37
48390;BME280;34643;47.964;7.982;2023-08-12T16:48:42;96934.97;;;22.35;59.23
48390;BME280;34643;47.964;7.982;2023-08-12T16:53:43;96936.59;;;22.36;59.21
48390;BME280;34643;47.964;7.982;2023-08-12T16:58:43;96942.72;;;22.37;59.19
48390;BME280;34643;47.964;7.982;2023-08-12T17:03:43;96934.81;;;22.37;59.20
48390;BME280;34643;47.964;7.982;2023-08-12T17:08:43;96923.31;;;22.38;59.15
48390;BME280;34643;47.964;7.982;2023-08-12T17:13:44;96925.13;;;22.37;59.32
48390;BME280;34643;47.964;7.982;2023-08-12T17:18:44;96924.16;;;22.38;59.05
48390;BME280;34643;47.964;7.982;2023-08-12T17:23:45;96936.31;;;22.39;59.34
48390;BME280;34643;47.964;7.982;2023-08-12T17:28:45;96929.44;;;22.38;59.07
48390;BME280;34643;47.964;7.982;2023-08-12T17:33:45;96946.03;;;22.39;59.44
48390;BME280;34643;47.964;7.982;2023-08-12T17:38:46;96944.22;;;22.39;59.21
48390;BME280;34643;47.964;7.982;2023-08-12T17:43:46;96931.06;;;22.39;59.19
48390;BME280;34643;47.964;7.982;2023-08-12T17:48:47;96932.88;;;22.39;59.20
48390;BME280;34643;47.964;7.982;2023-08-12T17:53:50;96938.97;;;22.39;59.44
48390;BME280;34643;47.964;7.982;2023-08-12T17:58:51;96946.03;;;22.39;59.17
48390;BME280;34643;47.964;7.982;2023-08-12T18:03:51;96946.84;;;22.39;59.52
48390;BME280;34643;47.964;7.982;2023-08-12T18:08:52;96956.41;;;22.40;59.06
48390;BME280;34643;47.964;7.982;2023-08-12T18:13:52;96961.66;;;22.40;59.18
48390;BME280;34643;47.964;7.982;2023-08-12T18:18:52;96961.66;;;22.40;59.36
48390;BME280;34643;47.964;7.982;2023-08-12T18:23:53;96970.38;;;22.41;59.51
48390;BME280;34643;47.964;7.982;2023-08-12T18:28:53;96976.59;;;22.40;59.39
48390;BME280;34643;47.964;7.982;2023-08-12T18:33:53;96984.47;;;22.40;59.24
48390;BME280;34643;47.964;7.982;2023-08-12T18:38:54;96994.03;;;22.41;59.31
48390;BME280;34643;47.964;7.982;2023-08-12T18:43:54;96996.69;;;22.41;59.30
48390;BME280;34643;47.964;7.982;2023-08-12T18:48:54;97001.94;;;22.41;59.16
48390;BME280;34643;47.964;7.982;2023-08-12T18:53:55;97012.44;;;22.41;59.31
48390;BME280;34643;47.964;7.982;2023-08-12T18:58:55;97017.72;;;22.41;59.18
48390;BME280;34643;47.964;7.982;2023-08-12T19:03:55;97013.28;;;22.42;59.28
48390;BME280;34643;47.964;7.982;2023-08-12T19:08:56;97020.34;;;22.41;59.34
48390;BME280;34643;47.964;7.982;2023-08-12T19:13:56;97029.06;;;22.42;59.00
48390;BME280;34643;47.964;7.982;2023-08-12T19:18:56;97031.69;;;22.42;59.35
48390;BME280;34643;47.964;7.982;2023-08-12T19:23:56;97037.78;;;22.42;59.26
48390;BME280;34643;47.964;7.982;2023-08-12T19:28:57;97037.78;;;22.42;59.32
48390;BME280;34643;47.964;7.982;2023-08-12T19:33:59;97043.06;;;22.42;59.09
48390;BME280;34643;47.964;7.982;2023-08-12T19:38:59;97044.00;;;22.41;59.09
48390;BME280;34643;47.964;7.982;2023-08-12T19:43:59;97036.94;;;22.42;59.40
48390;BME280;34643;47.964;7.982;2023-08-12T19:49:00;97039.56;;;22.42;59.21
48390;BME280;34643;47.964;7.982;2023-08-12T19:54:00;97050.94;;;22.42;59.05
48390;BME280;34643;47.964;7.982;2023-08-12T19:59:00;97045.69;;;22.42;58.97
48390;BME280;34643;47.964;7.982;2023-08-12T20:04:01;97045.69;;;22.42;59.26
48390;BME280;34643;47.964;7.982;2023-08-12T20:09:01;97045.69;;;22.42;59.29
48390;BME280;34643;47.964;7.982;2023-08-12T20:14:01;97048.31;;;22.42;59.18
48390;BME280;34643;47.964;7.982;2023-08-12T20:19:02;97054.41;;;22.43;59.03
48390;BME280;34643;47.964;7.982;2023-08-12T20:24:02;97050.09;;;22.42;59.15
48390;BME280;34643;47.964;7.982;2023-08-12T20:29:03;97055.22;;;22.43;59.10
48390;BME280;34643;47.964;7.982;2023-08-12T20:34:03;97065.75;;;22.43;59.27
48390;BME280;34643;47.964;7.982;2023-08-12T20:39:03;97057.03;;;22.43;59.10
48390;BME280;34643;47.964;7.982;2023-08-12T20:44:04;97053.56;;;22.42;59.24
48390;BME280;34643;47.964;7.982;2023-08-12T20:49:05;97068.38;;;22.43;59.03
48390;BME280;34643;47.964;7.982;2023-08-12T20:54:05;97063.13;;;22.43;59.15
48390;BME280;34643;47.964;7.982;2023-08-12T20:59:06;97067.56;;;22.43;58.92
48390;BME280;34643;47.964;7.982;2023-08-12T21:04:06;97067.56;;;22.43;59.43
48390;BME280;34643;47.964;7.982;2023-08-12T21:09:07;97056.22;;;22.42;59.10
48390;BME280;34643;47.964;7.982;2023-08-12T21:14:07;97056.03;;;22.44;59.20
48390;BME280;34643;47.964;7.982;2023-08-12T21:19:10;97071.00;;;22.43;59.00
48390;BME280;34643;47.964;7.982;2023-08-12T21:24:13;97060.47;;;22.43;59.09
48390;BME280;34643;47.964;7.982;2023-08-12T21:29:13;97057.84;;;22.43;59.02
48390;BME280;34643;47.964;7.982;2023-08-12T21:34:13;97050.78;;;22.44;59.02
48390;BME280;34643;47.964;7.982;2023-08-12T21:39:14;97057.72;;;22.45;59.15
48390;BME280;34643;47.964;7.982;2023-08-12T21:44:14;97059.66;;;22.43;59.23
48390;BME280;34643;47.964;7.982;2023-08-12T21:49:15;97052.59;;;22.43;59.20
48390;BME280;34643;47.964;7.982;2023-08-12T21:54:15;97055.22;;;22.43;59.23
48390;BME280;34643;47.964;7.982;2023-08-12T21:59:16;97053.41;;;22.44;59.17
48390;BME280;34643;47.964;7.982;2023-08-12T22:04:19;97050.78;;;22.44;59.17
48390;BME280;34643;47.964;7.982;2023-08-12T22:09:19;97043.88;;;22.43;59.18
48390;BME280;34643;47.964;7.982;2023-08-12T22:14:20;97041.25;;;22.43;59.02
48390;BME280;34643;47.964;7.982;2023-08-12T22:19:20;97042.06;;;22.43;58.95
48390;BME280;34643;47.964;7.982;2023-08-12T22:24:20;97026.28;;;22.43;59.16
48390;BME280;34643;47.964;7.982;2023-08-12T22:29:20;97035.00;;;22.44;58.91
48390;BME280;34643;47.964;7.982;2023-08-12T22:34:21;97031.56;;;22.43;58.86
48390;BME280;34643;47.964;7.982;2023-08-12T22:39:21;97032.38;;;22.44;59.06
48390;BME280;34643;47.964;7.982;2023-08-12T22:44:24;97037.63;;;22.44;58.88
48390;BME280;34643;47.964;7.982;2023-08-12T22:49:27;97031.56;;;22.43;59.24
48390;BME280;34643;47.964;7.982;2023-08-12T22:54:28;97034.19;;;22.43;59.16
48390;BME280;34643;47.964;7.982;2023-08-12T22:59:28;97028.09;;;22.43;59.00
48390;BME280;34643;47.964;7.982;2023-08-12T23:04:28;97034.19;;;22.43;59.08
48390;BME280;34643;47.964;7.982;2023-08-12T23:09:28;97022.84;;;22.43;58.92
48390;BME280;34643;47.964;7.982;2023-08-12T23:14:29;97020.34;;;22.41;58.94
48390;BME280;34643;47.964;7.982;2023-08-12T23:19:29;97019.38;;;22.42;59.08
48390;BME280;34643;47.964;7.982;2023-08-12T23:24:29;97023.78;;;22.42;59.19
48390;BME280;34643;47.964;7.982;2023-08-12T23:29:30;97018.53;;;22.42;58.84
48390;BME280;34643;47.964;7.982;2023-08-12T23:34:30;97022.97;;;22.41;59.18
48390;BME280;34643;47.964;7.982;2023-08-12T23:39:34;97024.66;;;22.42;58.90
48390;BME280;34643;47.964;7.982;2023-08-12T23:44:34;97029.06;;;22.42;58.93
48390;BME280;34643;47.964;7.982;2023-08-12T23:49:35;97031.69;;;22.42;59.08
48390;BME280;34643;47.964;7.982;2023-08-12T23:54:35;97033.50;;;22.41;59.22
48390;BME280;34643;47.964;7.982;2023-08-12T23:59:35;97022.97;;;22.41;59.07
